Inman, Kansas
Current Conditions -  °F | °C
As of 2:52 PM on Saturday 20 Dec 2014 (Local Time) from KHUT Reporting Station
Few Clouds Few Clouds  
Wind Chill: 51°   Ceiling: Unl
Heat Index: 51°   Visibility: 10mi
Dew Point: 37°   Wind: 18mph
Humidity: 59%   Direction: 190°S
Pressure: 30.06"   Gusts: NA
Location:  38.23°N, 97.77°W
Report Text: KHUT 202052Z 19016KT 10SM FEW023 11/03 A3006 RMK AO2 SLP178 T01060028 56019
Loading
Personal Weather Stations






























Interactive Weather Map New forecast layout! Learn more

10-Day Weather Forecast

Advertisements
Track Severe Weather on mobile